sensor_id;sensor_type;location;lat;lon;timestamp;temperature;humidity
3334;DHT22;1679;50.392;8.008;2023-07-13T00:00:44;18.60;99.90
3334;DHT22;1679;50.392;8.008;2023-07-13T00:03:11;18.60;99.90
3334;DHT22;1679;50.392;8.008;2023-07-13T00:05:39;18.60;99.90
3334;DHT22;1679;50.392;8.008;2023-07-13T00:08:06;18.60;99.90
3334;DHT22;1679;50.392;8.008;2023-07-13T00:10:33;18.60;99.90
3334;DHT22;1679;50.392;8.008;2023-07-13T00:12:59;18.60;99.90
3334;DHT22;1679;50.392;8.008;2023-07-13T00:15:26;18.60;99.90
3334;DHT22;1679;50.392;8.008;2023-07-13T00:17:53;18.60;99.90
3334;DHT22;1679;50.392;8.008;2023-07-13T00:20:21;18.50;99.90
3334;DHT22;1679;50.392;8.008;2023-07-13T00:22:48;18.40;99.90
3334;DHT22;1679;50.392;8.008;2023-07-13T00:25:14;18.40;99.90
3334;DHT22;1679;50.392;8.008;2023-07-13T00:27:42;18.30;99.90
3334;DHT22;1679;50.392;8.008;2023-07-13T00:30:08;18.30;99.90
3334;DHT22;1679;50.392;8.008;2023-07-13T00:32:34;18.30;99.90
3334;DHT22;1679;50.392;8.008;2023-07-13T00:35:00;18.20;99.90
3334;DHT22;1679;50.392;8.008;2023-07-13T00:37:26;18.10;99.90
3334;DHT22;1679;50.392;8.008;2023-07-13T00:39:51;18.10;99.90
3334;DHT22;1679;50.392;8.008;2023-07-13T00:42:18;18.00;99.90
3334;DHT22;1679;50.392;8.008;2023-07-13T00:47:31;18.00;99.90
3334;DHT22;1679;50.392;8.008;2023-07-13T00:49:56;18.00;99.90
3334;DHT22;1679;50.392;8.008;2023-07-13T00:52:22;18.00;99.90
3334;DHT22;1679;50.392;8.008;2023-07-13T00:54:48;18.00;99.90
3334;DHT22;1679;50.392;8.008;2023-07-13T00:57:18;18.00;99.90
3334;DHT22;1679;50.392;8.008;2023-07-13T00:59:55;18.00;99.90
3334;DHT22;1679;50.392;8.008;2023-07-13T01:02:23;18.00;99.90
3334;DHT22;1679;50.392;8.008;2023-07-13T01:04:49;18.00;99.90
3334;DHT22;1679;50.392;8.008;2023-07-13T01:07:14;18.00;99.90
3334;DHT22;1679;50.392;8.008;2023-07-13T01:09:40;18.00;99.90
3334;DHT22;1679;50.392;8.008;2023-07-13T01:12:07;18.00;99.90
3334;DHT22;1679;50.392;8.008;2023-07-13T01:14:32;17.90;99.90
3334;DHT22;1679;50.392;8.008;2023-07-13T01:16:58;17.80;99.90
3334;DHT22;1679;50.392;8.008;2023-07-13T01:22:17;17.70;99.90
3334;DHT22;1679;50.392;8.008;2023-07-13T01:24:45;17.60;99.90
3334;DHT22;1679;50.392;8.008;2023-07-13T01:27:23;17.60;99.90
3334;DHT22;1679;50.392;8.008;2023-07-13T01:29:50;17.50;99.90
3334;DHT22;1679;50.392;8.008;2023-07-13T01:32:20;17.40;99.90
3334;DHT22;1679;50.392;8.008;2023-07-13T01:34:47;17.40;99.90
3334;DHT22;1679;50.392;8.008;2023-07-13T01:37:12;17.40;99.90
3334;DHT22;1679;50.392;8.008;2023-07-13T01:39:38;17.30;99.90
3334;DHT22;1679;50.392;8.008;2023-07-13T01:42:05;17.20;99.90
3334;DHT22;1679;50.392;8.008;2023-07-13T01:44:32;17.10;99.90
3334;DHT22;1679;50.392;8.008;2023-07-13T01:46:58;17.00;99.90
3334;DHT22;1679;50.392;8.008;2023-07-13T01:49:23;16.90;99.90
3334;DHT22;1679;50.392;8.008;2023-07-13T01:51:49;16.80;99.90
3334;DHT22;1679;50.392;8.008;2023-07-13T01:54:14;16.80;99.90
3334;DHT22;1679;50.392;8.008;2023-07-13T01:56:40;16.70;99.90
3334;DHT22;1679;50.392;8.008;2023-07-13T01:59:08;16.70;99.90
3334;DHT22;1679;50.392;8.008;2023-07-13T02:01:34;16.70;99.90
3334;DHT22;1679;50.392;8.008;2023-07-13T02:03:59;16.60;99.90
3334;DHT22;1679;50.392;8.008;2023-07-13T02:06:25;16.70;99.90
3334;DHT22;1679;50.392;8.008;2023-07-13T02:08:51;16.60;99.90
3334;DHT22;1679;50.392;8.008;2023-07-13T02:11:18;16.50;99.90
3334;DHT22;1679;50.392;8.008;2023-07-13T02:13:44;16.50;99.90
3334;DHT22;1679;50.392;8.008;2023-07-13T02:16:10;16.50;99.90
3334;DHT22;1679;50.392;8.008;2023-07-13T02:18:35;16.40;99.90
3334;DHT22;1679;50.392;8.008;2023-07-13T02:21:01;16.40;99.90
3334;DHT22;1679;50.392;8.008;2023-07-13T02:23:28;16.30;99.90
3334;DHT22;1679;50.392;8.008;2023-07-13T02:25:57;16.40;99.90
3334;DHT22;1679;50.392;8.008;2023-07-13T02:28:23;16.40;99.90
3334;DHT22;1679;50.392;8.008;2023-07-13T02:30:48;16.30;99.90
3334;DHT22;1679;50.392;8.008;2023-07-13T02:33:14;16.30;99.90
3334;DHT22;1679;50.392;8.008;2023-07-13T02:35:39;16.30;99.90
3334;DHT22;1679;50.392;8.008;2023-07-13T02:38:05;16.30;99.90
3334;DHT22;1679;50.392;8.008;2023-07-13T02:40:30;16.20;99.90
3334;DHT22;1679;50.392;8.008;2023-07-13T02:42:59;16.20;99.90
3334;DHT22;1679;50.392;8.008;2023-07-13T02:45:25;16.20;99.90
3334;DHT22;1679;50.392;8.008;2023-07-13T02:47:51;16.10;99.90
3334;DHT22;1679;50.392;8.008;2023-07-13T02:50:18;16.10;99.90
3334;DHT22;1679;50.392;8.008;2023-07-13T02:52:43;16.10;99.90
3334;DHT22;1679;50.392;8.008;2023-07-13T02:55:09;16.10;99.90
3334;DHT22;1679;50.392;8.008;2023-07-13T02:57:34;16.00;99.90
3334;DHT22;1679;50.392;8.008;2023-07-13T03:00:02;16.00;99.90
3334;DHT22;1679;50.392;8.008;2023-07-13T03:02:31;16.00;99.90
3334;DHT22;1679;50.392;8.008;2023-07-13T03:04:57;15.90;99.90
3334;DHT22;1679;50.392;8.008;2023-07-13T03:07:24;15.80;99.90
3334;DHT22;1679;50.392;8.008;2023-07-13T03:09:57;15.70;99.90
3334;DHT22;1679;50.392;8.008;2023-07-13T03:12:24;15.70;99.90
3334;DHT22;1679;50.392;8.008;2023-07-13T03:14:50;15.60;99.90
3334;DHT22;1679;50.392;8.008;2023-07-13T03:17:16;15.60;99.90
3334;DHT22;1679;50.392;8.008;2023-07-13T03:19:41;15.70;99.90
3334;DHT22;1679;50.392;8.008;2023-07-13T03:22:07;15.60;99.90
3334;DHT22;1679;50.392;8.008;2023-07-13T03:24:33;15.60;99.90
3334;DHT22;1679;50.392;8.008;2023-07-13T03:27:00;15.60;99.90
3334;DHT22;1679;50.392;8.008;2023-07-13T03:29:26;15.60;99.90
3334;DHT22;1679;50.392;8.008;2023-07-13T03:31:51;15.50;99.90
3334;DHT22;1679;50.392;8.008;2023-07-13T03:34:17;15.40;99.90
3334;DHT22;1679;50.392;8.008;2023-07-13T03:36:42;15.50;99.90
3334;DHT22;1679;50.392;8.008;2023-07-13T03:39:09;15.40;99.90
3334;DHT22;1679;50.392;8.008;2023-07-13T03:41:34;15.40;99.90
3334;DHT22;1679;50.392;8.008;2023-07-13T03:44:00;15.30;99.90
3334;DHT22;1679;50.392;8.008;2023-07-13T03:46:25;15.20;99.90
3334;DHT22;1679;50.392;8.008;2023-07-13T03:48:52;15.10;99.90
3334;DHT22;1679;50.392;8.008;2023-07-13T03:51:18;15.00;99.90
3334;DHT22;1679;50.392;8.008;2023-07-13T03:53:46;15.00;99.90
3334;DHT22;1679;50.392;8.008;2023-07-13T03:56:12;14.90;99.90
3334;DHT22;1679;50.392;8.008;2023-07-13T03:58:40;15.00;99.90
3334;DHT22;1679;50.392;8.008;2023-07-13T04:01:08;15.10;99.90
3334;DHT22;1679;50.392;8.008;2023-07-13T04:03:35;15.10;99.90
3334;DHT22;1679;50.392;8.008;2023-07-13T04:06:03;15.10;99.90
3334;DHT22;1679;50.392;8.008;2023-07-13T04:08:30;15.10;99.90
3334;DHT22;1679;50.392;8.008;2023-07-13T04:10:57;15.10;99.90
3334;DHT22;1679;50.392;8.008;2023-07-13T04:13:24;15.10;99.90
3334;DHT22;1679;50.392;8.008;2023-07-13T04:15:50;15.10;99.90
3334;DHT22;1679;50.392;8.008;2023-07-13T04:18:15;15.10;99.90
3334;DHT22;1679;50.392;8.008;2023-07-13T04:20:41;15.10;99.90
3334;DHT22;1679;50.392;8.008;2023-07-13T04:23:07;15.20;99.90
3334;DHT22;1679;50.392;8.008;2023-07-13T04:25:33;15.20;99.90
3334;DHT22;1679;50.392;8.008;2023-07-13T04:27:59;15.30;99.90
3334;DHT22;1679;50.392;8.008;2023-07-13T04:30:24;15.40;99.90
3334;DHT22;1679;50.392;8.008;2023-07-13T04:32:52;15.50;99.90
3334;DHT22;1679;50.392;8.008;2023-07-13T04:35:19;15.50;99.90
3334;DHT22;1679;50.392;8.008;2023-07-13T04:37:46;15.50;99.90
3334;DHT22;1679;50.392;8.008;2023-07-13T04:40:12;15.60;99.90
3334;DHT22;1679;50.392;8.008;2023-07-13T04:42:38;15.70;99.90
3334;DHT22;1679;50.392;8.008;2023-07-13T04:45:06;15.70;99.90
3334;DHT22;1679;50.392;8.008;2023-07-13T04:47:32;15.70;99.90
3334;DHT22;1679;50.392;8.008;2023-07-13T04:49:58;15.70;99.90
3334;DHT22;1679;50.392;8.008;2023-07-13T04:52:23;15.80;99.90
3334;DHT22;1679;50.392;8.008;2023-07-13T04:54:50;15.80;99.90
3334;DHT22;1679;50.392;8.008;2023-07-13T04:57:16;15.90;99.90
3334;DHT22;1679;50.392;8.008;2023-07-13T04:59:41;15.90;99.90
3334;DHT22;1679;50.392;8.008;2023-07-13T05:02:07;15.90;99.90
3334;DHT22;1679;50.392;8.008;2023-07-13T05:04:32;16.00;99.90
3334;DHT22;1679;50.392;8.008;2023-07-13T05:06:59;16.00;99.90
3334;DHT22;1679;50.392;8.008;2023-07-13T05:09:24;16.10;99.90
3334;DHT22;1679;50.392;8.008;2023-07-13T05:11:50;16.20;99.90
3334;DHT22;1679;50.392;8.008;2023-07-13T05:14:15;16.30;99.90
3334;DHT22;1679;50.392;8.008;2023-07-13T05:16:41;16.30;99.90
3334;DHT22;1679;50.392;8.008;2023-07-13T05:19:09;16.40;99.90
3334;DHT22;1679;50.392;8.008;2023-07-13T05:21:35;16.40;99.90
3334;DHT22;1679;50.392;8.008;2023-07-13T05:24:01;16.50;99.90
3334;DHT22;1679;50.392;8.008;2023-07-13T05:26:28;16.50;99.90
3334;DHT22;1679;50.392;8.008;2023-07-13T05:28:57;16.50;99.90
3334;DHT22;1679;50.392;8.008;2023-07-13T05:31:22;16.60;99.90
3334;DHT22;1679;50.392;8.008;2023-07-13T05:33:49;16.70;99.90
3334;DHT22;1679;50.392;8.008;2023-07-13T05:36:14;16.70;99.90
3334;DHT22;1679;50.392;8.008;2023-07-13T05:38:40;16.80;99.90
3334;DHT22;1679;50.392;8.008;2023-07-13T05:41:07;16.90;99.90
3334;DHT22;1679;50.392;8.008;2023-07-13T05:43:33;16.90;99.90
3334;DHT22;1679;50.392;8.008;2023-07-13T05:46:00;17.10;99.90
3334;DHT22;1679;50.392;8.008;2023-07-13T05:48:25;17.20;99.90
3334;DHT22;1679;50.392;8.008;2023-07-13T05:50:51;17.30;99.90
3334;DHT22;1679;50.392;8.008;2023-07-13T05:53:16;17.40;99.90
3334;DHT22;1679;50.392;8.008;2023-07-13T05:55:43;17.60;99.90
3334;DHT22;1679;50.392;8.008;2023-07-13T05:58:08;17.70;99.90
3334;DHT22;1679;50.392;8.008;2023-07-13T06:00:34;17.80;99.90
3334;DHT22;1679;50.392;8.008;2023-07-13T06:02:59;17.90;99.90
3334;DHT22;1679;50.392;8.008;2023-07-13T06:05:25;17.90;99.90
3334;DHT22;1679;50.392;8.008;2023-07-13T06:07:52;18.00;99.90
3334;DHT22;1679;50.392;8.008;2023-07-13T06:10:17;18.10;99.90
3334;DHT22;1679;50.392;8.008;2023-07-13T06:12:43;18.20;99.90
3334;DHT22;1679;50.392;8.008;2023-07-13T06:15:09;18.30;99.90
3334;DHT22;1679;50.392;8.008;2023-07-13T06:17:36;18.30;99.90
3334;DHT22;1679;50.392;8.008;2023-07-13T06:20:01;18.40;99.90
3334;DHT22;1679;50.392;8.008;2023-07-13T06:22:27;18.50;99.90
3334;DHT22;1679;50.392;8.008;2023-07-13T06:24:54;18.60;99.90
3334;DHT22;1679;50.392;8.008;2023-07-13T06:27:20;18.70;99.90
3334;DHT22;1679;50.392;8.008;2023-07-13T06:29:46;18.80;99.90
3334;DHT22;1679;50.392;8.008;2023-07-13T06:32:11;18.90;99.90
3334;DHT22;1679;50.392;8.008;2023-07-13T06:34:37;19.00;99.90
3334;DHT22;1679;50.392;8.008;2023-07-13T06:37:02;19.10;99.90
3334;DHT22;1679;50.392;8.008;2023-07-13T06:39:28;19.20;99.90
3334;DHT22;1679;50.392;8.008;2023-07-13T06:41:55;19.40;99.90
3334;DHT22;1679;50.392;8.008;2023-07-13T06:44:20;19.50;99.90
3334;DHT22;1679;50.392;8.008;2023-07-13T06:46:47;19.70;99.90
3334;DHT22;1679;50.392;8.008;2023-07-13T06:49:12;20.10;99.90
3334;DHT22;1679;50.392;8.008;2023-07-13T06:51:37;20.40;99.90
3334;DHT22;1679;50.392;8.008;2023-07-13T06:54:03;20.70;99.90
3334;DHT22;1679;50.392;8.008;2023-07-13T06:56:30;21.00;99.90
3334;DHT22;1679;50.392;8.008;2023-07-13T06:58:56;21.20;99.90
3334;DHT22;1679;50.392;8.008;2023-07-13T07:01:21;21.20;99.90
3334;DHT22;1679;50.392;8.008;2023-07-13T07:03:47;21.20;99.90
3334;DHT22;1679;50.392;8.008;2023-07-13T07:06:13;21.10;99.90
3334;DHT22;1679;50.392;8.008;2023-07-13T07:08:40;21.00;99.90
3334;DHT22;1679;50.392;8.008;2023-07-13T07:11:08;20.90;99.90
3334;DHT22;1679;50.392;8.008;2023-07-13T07:13:33;21.10;99.90
3334;DHT22;1679;50.392;8.008;2023-07-13T07:15:59;21.40;99.90
3334;DHT22;1679;50.392;8.008;2023-07-13T07:18:25;21.80;99.90
3334;DHT22;1679;50.392;8.008;2023-07-13T07:20:52;22.20;99.90
3334;DHT22;1679;50.392;8.008;2023-07-13T07:23:17;22.50;99.90
3334;DHT22;1679;50.392;8.008;2023-07-13T07:25:44;22.70;99.90
3334;DHT22;1679;50.392;8.008;2023-07-13T07:28:10;22.80;99.90
3334;DHT22;1679;50.392;8.008;2023-07-13T07:30:36;23.00;99.90
3334;DHT22;1679;50.392;8.008;2023-07-13T07:33:01;23.00;99.90
3334;DHT22;1679;50.392;8.008;2023-07-13T07:35:27;23.30;99.90
3334;DHT22;1679;50.392;8.008;2023-07-13T07:37:52;23.50;99.90
3334;DHT22;1679;50.392;8.008;2023-07-13T07:40:18;23.50;99.90
3334;DHT22;1679;50.392;8.008;2023-07-13T07:42:44;23.40;99.90
3334;DHT22;1679;50.392;8.008;2023-07-13T07:45:10;23.30;99.90
3334;DHT22;1679;50.392;8.008;2023-07-13T07:47:37;23.50;99.90
3334;DHT22;1679;50.392;8.008;2023-07-13T07:50:02;23.40;99.90
3334;DHT22;1679;50.392;8.008;2023-07-13T07:52:29;23.30;99.90
3334;DHT22;1679;50.392;8.008;2023-07-13T07:54:54;23.30;99.90
3334;DHT22;1679;50.392;8.008;2023-07-13T07:57:20;23.10;99.90
3334;DHT22;1679;50.392;8.008;2023-07-13T07:59:48;22.70;99.90
3334;DHT22;1679;50.392;8.008;2023-07-13T08:02:13;22.20;99.90
3334;DHT22;1679;50.392;8.008;2023-07-13T08:04:39;21.80;99.90
3334;DHT22;1679;50.392;8.008;2023-07-13T08:07:07;21.80;99.90
3334;DHT22;1679;50.392;8.008;2023-07-13T08:09:32;22.00;99.90
3334;DHT22;1679;50.392;8.008;2023-07-13T08:11:58;22.30;99.90
3334;DHT22;1679;50.392;8.008;2023-07-13T08:14:25;22.80;99.90
3334;DHT22;1679;50.392;8.008;2023-07-13T08:16:50;23.10;99.90
3334;DHT22;1679;50.392;8.008;2023-07-13T08:19:16;23.50;99.90
3334;DHT22;1679;50.392;8.008;2023-07-13T08:21:41;24.00;99.90
3334;DHT22;1679;50.392;8.008;2023-07-13T08:24:08;24.40;99.90
3334;DHT22;1679;50.392;8.008;2023-07-13T08:26:34;24.40;99.90
3334;DHT22;1679;50.392;8.008;2023-07-13T08:29:00;24.70;99.90
3334;DHT22;1679;50.392;8.008;2023-07-13T08:31:25;25.10;99.90
3334;DHT22;1679;50.392;8.008;2023-07-13T08:33:52;25.20;99.90
3334;DHT22;1679;50.392;8.008;2023-07-13T08:36:17;25.60;99.90
3334;DHT22;1679;50.392;8.008;2023-07-13T08:38:43;25.80;99.50
3334;DHT22;1679;50.392;8.008;2023-07-13T08:41:17;26.00;97.80
3334;DHT22;1679;50.392;8.008;2023-07-13T08:43:47;26.00;98.70
3334;DHT22;1679;50.392;8.008;2023-07-13T08:46:26;26.20;98.20
3334;DHT22;1679;50.392;8.008;2023-07-13T08:49:04;26.20;98.00
3334;DHT22;1679;50.392;8.008;2023-07-13T08:51:51;26.00;97.90
3334;DHT22;1679;50.392;8.008;2023-07-13T08:54:38;25.70;97.80
3334;DHT22;1679;50.392;8.008;2023-07-13T08:57:14;25.60;98.40
3334;DHT22;1679;50.392;8.008;2023-07-13T08:59:43;25.60;97.80
3334;DHT22;1679;50.392;8.008;2023-07-13T09:13:15;26.10;98.20
3334;DHT22;1679;50.392;8.008;2023-07-13T09:15:46;25.90;97.80
3334;DHT22;1679;50.392;8.008;2023-07-13T09:18:16;25.70;97.30
3334;DHT22;1679;50.392;8.008;2023-07-13T09:20:49;25.30;98.20
3334;DHT22;1679;50.392;8.008;2023-07-13T09:23:20;25.10;97.80
3334;DHT22;1679;50.392;8.008;2023-07-13T09:26:05;24.90;98.90
3334;DHT22;1679;50.392;8.008;2023-07-13T09:28:44;24.60;99.00
3334;DHT22;1679;50.392;8.008;2023-07-13T09:31:24;24.40;99.10
3334;DHT22;1679;50.392;8.008;2023-07-13T09:33:53;24.80;99.10
3334;DHT22;1679;50.392;8.008;2023-07-13T09:36:25;25.20;99.40
3334;DHT22;1679;50.392;8.008;2023-07-13T09:39:04;25.60;98.70
3334;DHT22;1679;50.392;8.008;2023-07-13T09:44:29;25.20;97.50
3334;DHT22;1679;50.392;8.008;2023-07-13T09:46:57;25.20;97.90
3334;DHT22;1679;50.392;8.008;2023-07-13T09:49:33;25.40;99.00
3334;DHT22;1679;50.392;8.008;2023-07-13T09:52:05;25.50;96.90
3334;DHT22;1679;50.392;8.008;2023-07-13T09:54:36;25.70;97.30
3334;DHT22;1679;50.392;8.008;2023-07-13T09:57:08;26.00;97.10
3334;DHT22;1679;50.392;8.008;2023-07-13T09:59:45;26.50;96.70
3334;DHT22;1679;50.392;8.008;2023-07-13T10:04:56;26.40;95.60
3334;DHT22;1679;50.392;8.008;2023-07-13T10:07:23;26.00;95.70
3334;DHT22;1679;50.392;8.008;2023-07-13T10:09:53;25.50;95.90
3334;DHT22;1679;50.392;8.008;2023-07-13T10:12:20;24.90;95.80
3334;DHT22;1679;50.392;8.008;2023-07-13T10:14:47;24.60;96.40
3334;DHT22;1679;50.392;8.008;2023-07-13T10:17:14;24.80;96.80
3334;DHT22;1679;50.392;8.008;2023-07-13T10:19:41;24.90;97.10
3334;DHT22;1679;50.392;8.008;2023-07-13T10:22:33;24.90;96.20
3334;DHT22;1679;50.392;8.008;2023-07-13T10:25:01;24.80;95.50
3334;DHT22;1679;50.392;8.008;2023-07-13T10:27:34;25.10;96.00
3334;DHT22;1679;50.392;8.008;2023-07-13T10:30:21;25.90;95.50
3334;DHT22;1679;50.392;8.008;2023-07-13T10:32:51;26.30;94.80
3334;DHT22;1679;50.392;8.008;2023-07-13T10:35:19;26.30;94.20
3334;DHT22;1679;50.392;8.008;2023-07-13T10:38:10;26.00;93.40
3334;DHT22;1679;50.392;8.008;2023-07-13T10:40:43;25.40;93.90
3334;DHT22;1679;50.392;8.008;2023-07-13T10:43:18;25.20;94.50
3334;DHT22;1679;50.392;8.008;2023-07-13T10:45:46;25.60;94.10
3334;DHT22;1679;50.392;8.008;2023-07-13T10:48:15;25.90;92.70
3334;DHT22;1679;50.392;8.008;2023-07-13T10:50:45;25.80;93.70
3334;DHT22;1679;50.392;8.008;2023-07-13T10:53:41;25.40;94.20
3334;DHT22;1679;50.392;8.008;2023-07-13T10:58:42;25.70;93.20
3334;DHT22;1679;50.392;8.008;2023-07-13T11:01:09;25.80;93.80
3334;DHT22;1679;50.392;8.008;2023-07-13T11:03:46;25.80;93.90
3334;DHT22;1679;50.392;8.008;2023-07-13T11:08:56;25.50;93.70
3334;DHT22;1679;50.392;8.008;2023-07-13T11:19:38;24.60;93.50
3334;DHT22;1679;50.392;8.008;2023-07-13T11:25:01;24.40;94.00
3334;DHT22;1679;50.392;8.008;2023-07-13T11:30:07;24.30;94.20
3334;DHT22;1679;50.392;8.008;2023-07-13T11:32:33;24.40;93.60
3334;DHT22;1679;50.392;8.008;2023-07-13T11:35:01;24.30;93.70
3334;DHT22;1679;50.392;8.008;2023-07-13T11:37:30;24.40;92.60
3334;DHT22;1679;50.392;8.008;2023-07-13T11:39:57;24.50;93.30
3334;DHT22;1679;50.392;8.008;2023-07-13T11:42:23;24.60;93.60
3334;DHT22;1679;50.392;8.008;2023-07-13T11:44:50;24.70;93.30
3334;DHT22;1679;50.392;8.008;2023-07-13T11:47:21;24.60;92.80
3334;DHT22;1679;50.392;8.008;2023-07-13T11:49:55;24.60;93.50
3334;DHT22;1679;50.392;8.008;2023-07-13T11:52:36;24.70;93.90
3334;DHT22;1679;50.392;8.008;2023-07-13T11:55:04;24.80;94.30
3334;DHT22;1679;50.392;8.008;2023-07-13T11:57:44;24.90;93.00
3334;DHT22;1679;50.392;8.008;2023-07-13T12:00:14;25.00;93.30
3334;DHT22;1679;50.392;8.008;2023-07-13T12:02:45;25.00;93.50
3334;DHT22;1679;50.392;8.008;2023-07-13T12:05:16;25.20;93.80
3334;DHT22;1679;50.392;8.008;2023-07-13T12:07:43;25.20;93.40
3334;DHT22;1679;50.392;8.008;2023-07-13T12:10:21;25.10;92.70
3334;DHT22;1679;50.392;8.008;2023-07-13T12:12:58;24.90;93.60
3334;DHT22;1679;50.392;8.008;2023-07-13T12:15:40;24.70;93.30
3334;DHT22;1679;50.392;8.008;2023-07-13T12:18:19;24.80;93.70
3334;DHT22;1679;50.392;8.008;2023-07-13T12:20:47;24.80;93.30
3334;DHT22;1679;50.392;8.008;2023-07-13T12:23:30;24.80;94.10
3334;DHT22;1679;50.392;8.008;2023-07-13T12:25:58;24.80;93.60
3334;DHT22;1679;50.392;8.008;2023-07-13T12:28:45;24.50;93.70
3334;DHT22;1679;50.392;8.008;2023-07-13T12:31:31;24.40;94.10
3334;DHT22;1679;50.392;8.008;2023-07-13T12:33:59;24.30;93.90
3334;DHT22;1679;50.392;8.008;2023-07-13T12:36:25;24.40;94.40
3334;DHT22;1679;50.392;8.008;2023-07-13T12:38:51;24.40;94.40
3334;DHT22;1679;50.392;8.008;2023-07-13T12:41:17;24.50;94.90
3334;DHT22;1679;50.392;8.008;2023-07-13T12:43:45;24.50;93.90
3334;DHT22;1679;50.392;8.008;2023-07-13T12:46:28;24.50;94.10
3334;DHT22;1679;50.392;8.008;2023-07-13T12:48:56;24.50;93.90
3334;DHT22;1679;50.392;8.008;2023-07-13T12:51:24;24.50;94.20
3334;DHT22;1679;50.392;8.008;2023-07-13T12:53:57;24.50;93.70
3334;DHT22;1679;50.392;8.008;2023-07-13T12:56:24;24.50;94.00
3334;DHT22;1679;50.392;8.008;2023-07-13T12:58:58;24.40;94.30
3334;DHT22;1679;50.392;8.008;2023-07-13T13:01:27;24.40;94.10
3334;DHT22;1679;50.392;8.008;2023-07-13T13:03:53;24.30;94.70
3334;DHT22;1679;50.392;8.008;2023-07-13T13:06:22;24.30;94.80
3334;DHT22;1679;50.392;8.008;2023-07-13T13:08:54;24.20;94.50
3334;DHT22;1679;50.392;8.008;2023-07-13T13:11:21;24.20;94.50
3334;DHT22;1679;50.392;8.008;2023-07-13T13:13:48;24.10;94.20
3334;DHT22;1679;50.392;8.008;2023-07-13T13:16:26;24.00;94.70
3334;DHT22;1679;50.392;8.008;2023-07-13T13:18:56;24.00;94.60
3334;DHT22;1679;50.392;8.008;2023-07-13T13:21:25;24.00;94.20
3334;DHT22;1679;50.392;8.008;2023-07-13T13:23:51;24.10;94.30
3334;DHT22;1679;50.392;8.008;2023-07-13T13:26:21;24.10;93.90
3334;DHT22;1679;50.392;8.008;2023-07-13T13:28:46;24.20;93.70
3334;DHT22;1679;50.392;8.008;2023-07-13T13:31:13;24.30;93.60
3334;DHT22;1679;50.392;8.008;2023-07-13T13:33:41;24.30;93.70
3334;DHT22;1679;50.392;8.008;2023-07-13T13:38:41;24.40;93.60
3334;DHT22;1679;50.392;8.008;2023-07-13T13:41:09;24.20;93.80
3334;DHT22;1679;50.392;8.008;2023-07-13T13:43:35;24.20;94.00
3334;DHT22;1679;50.392;8.008;2023-07-13T13:46:00;24.10;94.70
3334;DHT22;1679;50.392;8.008;2023-07-13T13:48:32;24.00;94.50
3334;DHT22;1679;50.392;8.008;2023-07-13T13:50:58;23.80;94.40
3334;DHT22;1679;50.392;8.008;2023-07-13T13:53:24;23.70;95.00
3334;DHT22;1679;50.392;8.008;2023-07-13T13:55:50;23.70;95.10
3334;DHT22;1679;50.392;8.008;2023-07-13T13:58:17;24.00;95.40
3334;DHT22;1679;50.392;8.008;2023-07-13T14:00:43;24.30;95.00
3334;DHT22;1679;50.392;8.008;2023-07-13T14:03:17;24.70;94.90
3334;DHT22;1679;50.392;8.008;2023-07-13T14:05:44;25.00;94.80
3334;DHT22;1679;50.392;8.008;2023-07-13T14:08:17;24.80;94.40
3334;DHT22;1679;50.392;8.008;2023-07-13T14:10:48;24.50;93.00
3334;DHT22;1679;50.392;8.008;2023-07-13T14:13:18;24.30;94.00
3334;DHT22;1679;50.392;8.008;2023-07-13T14:15:45;24.20;93.70
3334;DHT22;1679;50.392;8.008;2023-07-13T14:18:11;24.20;93.50
3334;DHT22;1679;50.392;8.008;2023-07-13T14:20:43;24.20;93.90
3334;DHT22;1679;50.392;8.008;2023-07-13T14:23:09;24.20;93.80
3334;DHT22;1679;50.392;8.008;2023-07-13T14:25:34;24.20;94.00
3334;DHT22;1679;50.392;8.008;2023-07-13T14:30:43;24.00;94.10
3334;DHT22;1679;50.392;8.008;2023-07-13T14:33:11;23.90;94.80
3334;DHT22;1679;50.392;8.008;2023-07-13T14:35:36;24.00;94.30
3334;DHT22;1679;50.392;8.008;2023-07-13T14:38:03;24.10;94.20
3334;DHT22;1679;50.392;8.008;2023-07-13T14:40:30;24.20;94.40
3334;DHT22;1679;50.392;8.008;2023-07-13T14:42:56;24.30;94.40
3334;DHT22;1679;50.392;8.008;2023-07-13T14:45:23;24.50;94.30
3334;DHT22;1679;50.392;8.008;2023-07-13T14:47:50;24.60;93.30
3334;DHT22;1679;50.392;8.008;2023-07-13T14:50:23;24.40;93.40
3334;DHT22;1679;50.392;8.008;2023-07-13T14:52:51;24.30;93.60
3334;DHT22;1679;50.392;8.008;2023-07-13T14:55:18;24.30;94.10
3334;DHT22;1679;50.392;8.008;2023-07-13T14:57:44;24.40;93.60
3334;DHT22;1679;50.392;8.008;2023-07-13T15:00:19;24.50;93.40
3334;DHT22;1679;50.392;8.008;2023-07-13T15:02:51;24.40;93.60
3334;DHT22;1679;50.392;8.008;2023-07-13T15:05:23;24.30;93.90
3334;DHT22;1679;50.392;8.008;2023-07-13T15:07:50;24.20;93.70
3334;DHT22;1679;50.392;8.008;2023-07-13T15:12:43;24.10;93.90
3334;DHT22;1679;50.392;8.008;2023-07-13T15:15:09;24.20;94.30
3334;DHT22;1679;50.392;8.008;2023-07-13T15:17:37;24.50;93.60
3334;DHT22;1679;50.392;8.008;2023-07-13T15:20:31;24.60;93.90
3334;DHT22;1679;50.392;8.008;2023-07-13T15:22:57;24.90;92.80
3334;DHT22;1679;50.392;8.008;2023-07-13T15:25:25;25.00;93.20
3334;DHT22;1679;50.392;8.008;2023-07-13T15:27:55;25.00;93.30
3334;DHT22;1679;50.392;8.008;2023-07-13T15:30:22;24.90;93.20
3334;DHT22;1679;50.392;8.008;2023-07-13T15:32:50;24.90;94.20
3334;DHT22;1679;50.392;8.008;2023-07-13T15:35:17;25.10;93.60
3334;DHT22;1679;50.392;8.008;2023-07-13T15:37:43;25.20;93.20
3334;DHT22;1679;50.392;8.008;2023-07-13T15:40:10;25.10;92.70
3334;DHT22;1679;50.392;8.008;2023-07-13T15:42:37;25.10;93.70
3334;DHT22;1679;50.392;8.008;2023-07-13T15:45:22;25.10;93.40
3334;DHT22;1679;50.392;8.008;2023-07-13T15:47:49;25.00;94.20
3334;DHT22;1679;50.392;8.008;2023-07-13T15:50:24;24.80;93.40
3334;DHT22;1679;50.392;8.008;2023-07-13T15:52:54;24.60;93.30
3334;DHT22;1679;50.392;8.008;2023-07-13T15:55:20;24.30;94.00
3334;DHT22;1679;50.392;8.008;2023-07-13T15:57:48;24.10;94.50
3334;DHT22;1679;50.392;8.008;2023-07-13T16:00:26;24.20;93.70
3334;DHT22;1679;50.392;8.008;2023-07-13T16:02:52;24.10;94.00
3334;DHT22;1679;50.392;8.008;2023-07-13T16:05:19;24.10;94.20
3334;DHT22;1679;50.392;8.008;2023-07-13T16:07:46;24.10;95.30
3334;DHT22;1679;50.392;8.008;2023-07-13T16:10:26;24.30;93.90
3334;DHT22;1679;50.392;8.008;2023-07-13T16:12:56;24.20;94.20
3334;DHT22;1679;50.392;8.008;2023-07-13T16:15:22;24.10;94.80
3334;DHT22;1679;50.392;8.008;2023-07-13T16:17:48;24.10;94.00
3334;DHT22;1679;50.392;8.008;2023-07-13T16:20:15;24.10;94.20
3334;DHT22;1679;50.392;8.008;2023-07-13T16:22:45;24.10;94.20
3334;DHT22;1679;50.392;8.008;2023-07-13T16:25:17;24.00;94.10
3334;DHT22;1679;50.392;8.008;2023-07-13T16:27:44;24.00;93.60
3334;DHT22;1679;50.392;8.008;2023-07-13T16:30:20;23.80;94.20
3334;DHT22;1679;50.392;8.008;2023-07-13T16:32:47;23.80;94.50
3334;DHT22;1679;50.392;8.008;2023-07-13T16:35:21;23.70;94.30
3334;DHT22;1679;50.392;8.008;2023-07-13T16:37:47;23.80;95.10
3334;DHT22;1679;50.392;8.008;2023-07-13T16:40:26;24.00;94.40
3334;DHT22;1679;50.392;8.008;2023-07-13T16:42:54;24.00;94.30
3334;DHT22;1679;50.392;8.008;2023-07-13T16:45:24;24.10;94.00
3334;DHT22;1679;50.392;8.008;2023-07-13T16:47:52;24.00;94.50
3334;DHT22;1679;50.392;8.008;2023-07-13T16:50:21;24.00;96.10
3334;DHT22;1679;50.392;8.008;2023-07-13T16:52:47;24.10;94.30
3334;DHT22;1679;50.392;8.008;2023-07-13T16:55:15;24.00;94.40
3334;DHT22;1679;50.392;8.008;2023-07-13T16:57:45;23.80;94.50